• Join FlightAware (Why Join?)
  • Login
  • US Flag 
Rudolph Flight #1: Arrived! 
05:36AM EST


 

Airport Tracker/Info


-or-


 

Live Flight TrackerFlight Track Log ✈ UAL4612 ✈ 24-Jul-2013 ✈ KORD - KSAV

Flight Track Log - Related Links

Times and Time Zones

All times are in EDT time to prevent confusion due to time zone crossing. See the UAL4612 flight status page for this flight to view local times or setup timezone preferences in your user account.

Time Position Orientation Groundspeed Altitude Reporting Facility
EDT Latitude Longitude Course Direction KTS MPH feet Rate Location/Type
04:08PM 41.9667 -87.8500 173° South 176 203 2,400  Level Chicago TRACON
04:09PM 41.9272 -87.8075 141° Southeast 216 249 3,900 1,260 Climbing Chicago Center
04:10PM 41.6765 -87.6654 157° South  Level Estimated
04:10PM 41.8603 -87.7722 159° South 250 288 5,000  Level Chicago Center
04:11PM 41.5746 -87.5854 156° South  Level Estimated
04:11PM 41.7858 -87.7694 178° South 263 303 5,100  Level Chicago Center
04:12PM 41.4727 -87.5058 159° South  Level Estimated
04:12PM 41.7100 -87.7664 178° South 270 311 7,400  Level Chicago Center
04:13PM 41.3708 -87.4263 173° South  Level Estimated
04:13PM 41.6236 -87.7161 156° South 285 328 9,600  Level Chicago Center
04:14PM 41.5489 -87.6614 151° Southeast 300 345 11,500 1,740 Climbing Chicago Center
04:15PM 41.4683 -87.6031 152° Southeast 320 368 13,300 1,320 Climbing Chicago Center
04:16PM 41.3753 -87.5647 163° South 364 419 14,300 960 Climbing Chicago Center
04:17PM 41.2725 -87.5458 172° South 370 426 15,300 900 Climbing Chicago Center
04:18PM 41.1658 -87.5256 172° South 383 441 16,300 1,020 Climbing Chicago Center
04:19PM 41.0342 -87.4886 168° South 401 461 17,500 960 Climbing Chicago Center
04:20PM 40.9258 -87.4586 168° South 398 458 18,300 840 Climbing Chicago Center
04:21PM 40.8131 -87.4300 169° South 409 471 19,300 960 Climbing Chicago Center
04:22PM 40.6992 -87.4017 169° South 416 479 20,300 960 Climbing Chicago Center
04:23PM 40.5858 -87.3711 168° South 418 481 21,300 900 Climbing Chicago Center
04:24PM 40.4711 -87.3414 169° South 421 484 22,200 960 Climbing Chicago Center
04:25PM 40.3358 -87.2808 161° South 433 498 23,400 1,020 Climbing Chicago Center
04:26PM 40.2231 -87.2264 160° South 431 496 24,400 960 Climbing Chicago Center
04:27PM 40.1225 -87.1433 148° Southeast 433 498 25,400 900 Climbing Chicago Center
04:28PM 40.0611 -87.0931 148° Southeast 431 496 25,900 900 Climbing Indianapolis Center
04:29PM 39.9600 -87.0083 147° Southeast 434 499 26,900 960 Climbing Indianapolis Center
04:30PM 39.8611 -86.9247 147° Southeast 427 491 27,900 900 Climbing Indianapolis Center
04:31PM 39.7628 -86.8436 148° Southeast 423 487 28,800 960 Climbing Indianapolis Center
04:32PM 39.6444 -86.7453 147° Southeast 425 489 30,000 960 Climbing Indianapolis Center
04:33PM 39.5464 -86.6642 147° Southeast 424 488 30,900 900 Climbing Indianapolis Center
04:34PM 39.4464 -86.5814 147° Southeast 431 496 31,900 480 Climbing Indianapolis Center
04:35PM 39.3439 -86.4978 148° Southeast 438 504 32,000 60 Climbing Indianapolis Center
04:36PM 39.2350 -86.4089 148° Southeast 462 532 32,100 780 Climbing Indianapolis Center
04:37PM 39.1047 -86.3025 148° Southeast 464 534 33,700 1,380 Climbing Indianapolis Center
04:38PM 39.0006 -86.2178 148° Southeast 449 517 35,000 600 Climbing Indianapolis Center
04:39PM 38.8958 -86.1333 148° Southeast 448 516 35,000  Level Indianapolis Center
04:40PM 38.7736 -86.0356 148° Southeast 469 540 35,000  Level Indianapolis Center
04:41PM 38.6572 -85.9417 148° Southeast 487 560 35,000  Level Indianapolis Center
04:42PM 38.5439 -85.8508 148° Southeast 480 552 35,000  Level Indianapolis Center
04:43PM 38.4325 -85.7617 148° Southeast 472 543 35,000  Level Indianapolis Center
04:44PM 38.3206 -85.6742 148° Southeast 470 541 35,000  Level Indianapolis Center
04:45PM 38.2103 -85.5864 148° Southeast 464 534 35,000  Level Indianapolis Center
04:46PM 38.1003 -85.4983 148° Southeast 463 533 35,000  Level Indianapolis Center
04:47PM 37.9656 -85.3944 149° Southeast 469 540 35,000  Level Indianapolis Center
04:48PM 37.8525 -85.3056 148° Southeast 473 544 35,000  Level Indianapolis Center
04:49PM 37.7333 -85.2100 148° Southeast 477 549 35,000  Level Indianapolis Center
04:50PM 37.6167 -85.1222 149° Southeast 484 557 35,000  Level Indianapolis Center
04:51PM 37.5025 -85.0356 149° Southeast 480 552 35,000  Level Indianapolis Center
04:53PM 37.3908 -84.9486 148° Southeast 474 545 35,000  Level Indianapolis Center
04:54PM 37.2781 -84.8631 149° Southeast 474 545 35,000  Level Indianapolis Center
04:55PM 37.1408 -84.7989 160° South 452 520 35,000  Level Indianapolis Center
04:56PM 37.0189 -84.7281 155° Southeast 462 532 35,000  Level Indianapolis Center
04:57PM 36.9078 -84.6433 149° Southeast 464 534 35,000  Level Indianapolis Center
04:58PM 36.7981 -84.5589 148° Southeast 463 533 35,000  Level Indianapolis Center
04:59PM 36.6978 -84.4817 148° Southeast 462 532 35,000  Level Indianapolis Center
05:00PM 36.5700 -84.3839 148° Southeast 461 531 35,000  Level Indianapolis Center
05:01PM 36.4697 -84.3064 148° Southeast 459 528 35,000  Level Indianapolis Center
05:02PM 36.3589 -84.2236 149° Southeast 461 531 35,000  Level Indianapolis Center
05:03PM 36.2256 -84.1222 148° Southeast 464 534 35,000  Level Indianapolis Center
05:04PM 36.1153 -84.0394 149° Southeast 462 532 35,000  Level Indianapolis Center
05:05PM 36.0250 -83.9719 149° Southeast 465 535 35,000  Level Atlanta Center
05:06PM 35.9164 -83.8900 149° Southeast 465 535 35,000  Level Atlanta Center
05:07PM 35.8056 -83.8083 149° Southeast 465 535 35,000  Level Atlanta Center
05:08PM 35.6969 -83.7294 149° Southeast 465 535 35,000  Level Atlanta Center
05:09PM 35.5842 -83.6481 150° Southeast 465 535 35,000  Level Atlanta Center
05:10PM 35.4753 -83.5669 149° Southeast 465 535 35,000  Level Atlanta Center
05:11PM 35.3664 -83.4861 149° Southeast 465 535 35,000  Level Atlanta Center
05:12PM 35.2575 -83.4053 149° Southeast 465 535 35,000  Level Atlanta Center
05:13PM 35.1383 -83.3175 149° Southeast 465 535 35,000  Level Atlanta Center
05:14PM 35.0314 -83.2372 148° Southeast 465 535 35,000  Level Atlanta Center
05:15PM 34.9328 -83.1647 149° Southeast 460 529 35,000  Level Atlanta Center
05:16PM 34.8194 -83.0825 149° Southeast 473 544 35,000  Level Atlanta Center
05:17PM 34.7103 -83.0053 150° Southeast 473 544 35,000  Level Atlanta Center
05:18PM 34.5989 -82.9233 149° Southeast 473 544 35,000 -60 Level Atlanta Center
05:19PM 34.4897 -82.8517 152° Southeast 460 529 34,900 -1,440 Descending Atlanta Center
05:20PM 34.3597 -82.7781 155° Southeast 452 520 32,200 -2,460 Descending Atlanta Center
05:21PM 34.2672 -82.7317 157° South 460 529 30,000 -1,140 Descending Atlanta Center
05:22PM 34.1350 -82.6636 157° South 444 511 30,000  Level Atlanta Center
05:23PM 34.0278 -82.5825 148° Southeast 434 499 30,000  Level Atlanta Center
05:24PM 33.9203 -82.5042 149° Southeast 449 517 30,000  Level Atlanta Center
05:25PM 33.8086 -82.4214 148° Southeast 462 532 30,000 -420 Level Atlanta Center
05:26PM 33.6969 -82.3408 149° Southeast 462 532 29,200 -1,440 Descending Atlanta Center
05:27PM 33.5994 -82.2381 139° Southeast 473 544 27,100 -1,380 Descending Atlanta Center
05:28PM 33.4497 -82.0736 137° Southeast 521 600 25,600 -840 Descending Jacksonville Center
05:29PM 33.3428 -81.9875 146° Southeast 497 572 25,000 -7,320 Descending Jacksonville Center
05:30PM 33.2253 -81.9167 153° Southeast 476 548 11,000 -2,220 Descending Jacksonville Center
05:31PM 33.1142 -81.8436 151° Southeast 468 539 20,600 3,720 Climbing Jacksonville Center
05:32PM 33.0258 -81.7850 151° Southeast 435 501 18,500 -2,340 Descending Jacksonville Center
05:33PM 32.9294 -81.7294 154° Southeast 401 461 16,000 -2,460 Descending Jacksonville Center
05:34PM 32.8353 -81.6958 163° South 377 434 13,600 -2,100 Descending Jacksonville Center
05:35PM 32.7306 -81.6603 164° South 364 419 11,900 -1,740 Descending Jacksonville Center
05:36PM 32.6489 -81.6367 166° South 338 389 10,200 -1,800 Descending Jacksonville Center
05:37PM 32.5875 -81.5711 138° Southeast 289 333 8,300 -1,800 Descending Jacksonville Center
05:38PM 32.5408 -81.4953 126° Southeast 288 331 6,600 -1,680 Descending Jacksonville Center
05:39PM 32.4983 -81.4294 127° Southeast 288 331 5,000 -1,620 Descending Jacksonville Center
05:40PM 32.4558 -81.3564 125° Southeast 278 320 3,400 -1,500 Descending Jacksonville Center
05:41PM 32.4108 -81.2783 124° Southeast 266 306 2,000 -720 Descending Jacksonville Center
05:42PM 32.3600 -81.2228 137° Southeast 254 292 2,000  Level Jacksonville Center
05:43PM 32.3072 -81.1719 141° Southeast 247 284 2,000  Level Jacksonville Center
05:44PM 32.2586 -81.1286 143° Southeast 252 290 2,000  Level Jacksonville Center